Time;durP1;ratioP1;P1;durP2;ratioP2;P2;SDS_P1;SDS_P2;PMS_P1;PMS_P2;Temp;Humidity;BMP_temperature;BMP_pressure;BME280_temperature;BME280_humidity;BME280_pressure;Samples;Min_cycle;Max_cycle;Signal;HPM_P1;HPM_P2
2021/07/11 00:00:41;;;;;;;4.35;1.98;;;28.50;92.10;;;;;;5074815;28;20056;-57
2021/07/11 00:03:08;;;;;;;4.03;1.83;;;28.40;92.00;;;;;;5085202;28;20117;-57
2021/07/11 00:05:36;;;;;;;5.20;2.42;;;28.40;92.10;;;;;;5073852;28;20036;-57
2021/07/11 00:08:04;;;;;;;9.70;3.97;;;28.40;92.10;;;;;;5083434;28;20028;-57
2021/07/11 00:10:32;;;;;;;9.98;2.88;;;28.40;92.10;;;;;;5072301;28;20048;-57
2021/07/11 00:12:59;;;;;;;6.55;3.55;;;28.30;92.00;;;;;;5096217;28;20547;-57
2021/07/11 00:15:27;;;;;;;5.43;2.75;;;28.40;92.00;;;;;;5095863;28;20043;-57
2021/07/11 00:17:56;;;;;;;5.90;3.28;;;28.40;92.10;;;;;;5095903;28;20055;-57
2021/07/11 00:20:25;;;;;;;6.75;3.83;;;28.30;92.00;;;;;;5095677;28;20462;-57
2021/07/11 00:22:53;;;;;;;6.50;3.38;;;28.30;92.00;;;;;;5096025;28;20044;-57
2021/07/11 00:25:21;;;;;;;8.73;3.97;;;28.20;92.00;;;;;;5078169;28;20040;-57
2021/07/11 00:27:50;;;;;;;8.65;3.65;;;28.20;92.00;;;;;;5095813;28;20051;-57
2021/07/11 00:30:18;;;;;;;4.93;2.20;;;28.10;92.10;;;;;;5095603;28;20047;-57
2021/07/11 00:32:46;;;;;;;6.22;3.00;;;28.10;92.10;;;;;;5077378;28;20044;-57
2021/07/11 00:35:13;;;;;;;5.75;2.65;;;28.10;92.20;;;;;;5060720;28;20046;-57
2021/07/11 00:37:42;;;;;;;6.45;2.35;;;28.00;92.10;;;;;;5077666;28;20044;-56
2021/07/11 00:40:15;;;;;;;7.45;2.60;;;28.00;92.20;;;;;;5096057;28;20109;-57
2021/07/11 00:42:44;;;;;;;7.40;2.22;;;28.00;92.20;;;;;;5095448;28;20043;-57
2021/07/11 00:45:14;;;;;;;8.38;2.17;;;27.90;92.20;;;;;;5077640;28;20036;-57
2021/07/11 00:47:45;;;;;;;6.00;2.60;;;27.90;92.30;;;;;;5076823;28;20056;-57
2021/07/11 00:50:17;;;;;;;4.80;1.90;;;27.80;92.30;;;;;;5095250;28;20044;-57
2021/07/11 00:52:49;;;;;;;6.18;2.67;;;27.80;92.30;;;;;;5076937;28;20133;-57
2021/07/11 00:55:23;;;;;;;4.60;2.45;;;27.70;92.30;;;;;;5076591;28;20047;-57
2021/07/11 00:57:52;;;;;;;4.15;2.53;;;27.70;92.20;;;;;;5095409;28;20064;-57
2021/07/11 01:00:23;;;;;;;17.13;2.30;;;27.70;92.20;;;;;;5077181;28;20126;-57
2021/07/11 01:03:11;;;;;;;3.47;1.55;;;27.70;92.20;;;;;;5077353;28;20067;-57
2021/07/11 01:05:46;;;;;;;7.05;1.83;;;27.60;92.10;;;;;;5076917;28;20089;-57
2021/07/11 01:08:21;;;;;;;3.72;1.55;;;27.60;92.10;;;;;;5077042;28;20039;-57
2021/07/11 01:10:55;;;;;;;6.55;2.25;;;27.60;92.10;;;;;;5076961;28;20087;-57
2021/07/11 01:13:25;;;;;;;5.03;2.00;;;27.60;92.10;;;;;;5061397;28;20048;-57
2021/07/11 01:15:59;;;;;;;7.60;3.05;;;27.50;92.10;;;;;;5077194;28;20097;-57
2021/07/11 01:18:29;;;;;;;3.78;2.45;;;27.60;92.10;;;;;;5077192;28;20481;-57
2021/07/11 01:21:07;;;;;;;3.25;2.00;;;27.60;92.00;;;;;;5094536;28;20040;-57
2021/07/11 01:24:16;;;;;;;4.38;1.77;;;27.70;92.00;;;;;;5061038;28;20036;-57
2021/07/11 01:26:46;;;;;;;3.63;1.85;;;27.60;91.90;;;;;;5076874;28;20060;-57
2021/07/11 01:29:17;;;;;;;7.70;3.08;;;27.60;91.80;;;;;;5076305;28;20047;-57
2021/07/11 01:31:48;;;;;;;5.70;1.88;;;27.60;91.80;;;;;;5076305;28;20044;-57
2021/07/11 01:34:17;;;;;;;6.82;2.47;;;27.60;91.80;;;;;;5092984;28;20054;-57
2021/07/11 01:36:46;;;;;;;7.05;1.95;;;27.60;91.80;;;;;;5094378;28;20048;-57
2021/07/11 01:39:18;;;;;;;4.88;2.20;;;27.50;91.80;;;;;;5076190;28;20044;-57
2021/07/11 01:41:47;;;;;;;6.43;1.73;;;27.50;91.90;;;;;;5075953;28;20043;-57
2021/07/11 01:44:17;;;;;;;6.07;2.30;;;27.50;91.90;;;;;;5093955;28;20036;-57
2021/07/11 01:46:47;;;;;;;3.97;1.67;;;27.40;91.80;;;;;;5076115;28;20071;-57
2021/07/11 01:49:17;;;;;;;4.38;1.90;;;27.50;91.80;;;;;;5092697;28;20063;-57
2021/07/11 01:51:51;;;;;;;5.43;2.40;;;27.50;91.80;;;;;;5076067;28;20060;-57
2021/07/11 01:54:21;;;;;;;7.28;2.22;;;27.50;91.70;;;;;;5076265;28;20055;-57
2021/07/11 01:56:50;;;;;;;4.28;2.15;;;27.50;91.80;;;;;;5059309;28;20498;-57
2021/07/11 01:59:22;;;;;;;10.68;2.67;;;27.50;91.70;;;;;;5076031;28;20062;-57
2021/07/11 02:02:02;;;;;;;4.70;1.92;;;27.50;91.60;;;;;;5075955;28;20044;-57
2021/07/11 02:04:31;;;;;;;4.28;2.05;;;27.50;91.60;;;;;;5059608;28;20561;-57
2021/07/11 02:06:59;;;;;;;6.95;1.90;;;27.50;91.60;;;;;;5075566;28;20498;-57
2021/07/11 02:09:27;;;;;;;5.45;2.03;;;27.50;91.60;;;;;;5093447;28;20075;-57
2021/07/11 02:12:05;;;;;;;3.47;1.83;;;27.50;91.60;;;;;;5059237;28;20056;-57
2021/07/11 02:14:49;;;;;;;6.43;2.63;;;27.50;91.60;;;;;;5075634;28;20051;-57
2021/07/11 02:17:24;;;;;;;5.93;2.00;;;27.50;91.50;;;;;;5059069;28;20044;-57
2021/07/11 02:20:05;;;;;;;6.05;2.17;;;27.40;91.50;;;;;;5084868;28;20117;-57
2021/07/11 02:22:45;;;;;;;8.15;1.65;;;27.40;91.50;;;;;;5088934;28;20051;-57
2021/07/11 02:25:21;;;;;;;5.82;2.10;;;27.40;91.50;;;;;;5074120;28;20428;-57
2021/07/11 02:28:06;;;;;;;5.05;2.33;;;27.40;91.50;;;;;;5075990;28;20125;-57
2021/07/11 02:30:41;;;;;;;4.70;2.10;;;27.40;91.50;;;;;;5093249;28;20039;-57
2021/07/11 02:33:13;;;;;;;3.88;1.98;;;27.30;91.40;;;;;;5068237;28;20048;-57
2021/07/11 02:35:47;;;;;;;11.32;3.03;;;27.30;91.60;;;;;;5075271;28;20048;-57
2021/07/11 02:38:17;;;;;;;9.15;2.38;;;27.20;91.60;;;;;;5075258;28;20044;-57
2021/07/11 02:40:47;;;;;;;4.07;2.13;;;27.20;91.80;;;;;;5076096;28;20040;-57
2021/07/11 02:43:16;;;;;;;6.85;1.88;;;27.10;91.80;;;;;;5093836;28;20078;-57
2021/07/11 02:45:45;;;;;;;5.63;1.92;;;27.10;91.90;;;;;;5074967;28;20032;-57
2021/07/11 02:48:15;;;;;;;6.90;1.90;;;27.10;91.90;;;;;;5075417;28;20032;-57
2021/07/11 02:50:46;;;;;;;4.72;1.90;;;27.10;91.90;;;;;;5075101;28;20062;-57
2021/07/11 02:53:19;;;;;;;3.88;2.00;;;27.20;91.90;;;;;;5075283;28;20382;-57
2021/07/11 02:55:53;;;;;;;6.00;2.10;;;27.20;91.80;;;;;;5075119;28;20051;-57
2021/07/11 02:58:28;;;;;;;5.93;2.60;;;27.20;91.70;;;;;;5075721;28;20048;-57
2021/07/11 03:00:59;;;;;;;11.95;2.38;;;27.20;91.70;;;;;;5074773;28;20047;-57
2021/07/11 03:03:28;;;;;;;2.70;1.73;;;27.20;91.70;;;;;;5093128;28;20082;-57
2021/07/11 03:06:03;;;;;;;3.10;1.90;;;27.20;91.70;;;;;;5092995;28;20044;-57
2021/07/11 03:08:32;;;;;;;4.72;1.90;;;27.10;91.60;;;;;;5092695;28;20294;-57
2021/07/11 03:11:08;;;;;;;3.10;1.70;;;27.10;91.70;;;;;;5084711;28;20036;-57
2021/07/11 03:13:37;;;;;;;2.97;1.83;;;27.10;91.60;;;;;;5092981;28;20378;-56
2021/07/11 03:16:09;;;;;;;6.70;2.20;;;27.10;91.70;;;;;;5075354;28;20043;-57
2021/07/11 03:18:40;;;;;;;5.53;2.15;;;27.10;91.70;;;;;;5075038;28;20048;-57
2021/07/11 03:21:09;;;;;;;7.32;1.95;;;27.10;91.80;;;;;;5085792;28;20028;-57
2021/07/11 03:23:46;;;;;;;5.82;2.08;;;27.10;91.80;;;;;;5074673;28;20117;-57
2021/07/11 03:26:15;;;;;;;6.72;1.98;;;27.00;91.80;;;;;;5074859;28;20071;-57
2021/07/11 03:28:45;;;;;;;4.60;1.67;;;27.00;91.90;;;;;;5092602;28;20050;-57
2021/07/11 03:31:13;;;;;;;10.68;3.30;;;26.90;92.00;;;;;;5092704;28;20498;-57
2021/07/11 03:33:46;;;;;;;4.28;1.80;;;26.90;92.10;;;;;;5074431;28;20480;-57
2021/07/11 03:36:17;;;;;;;5.40;2.25;;;26.80;92.40;;;;;;5068681;28;20585;-57
2021/07/11 03:38:54;;;;;;;5.43;1.73;;;26.80;92.30;;;;;;5074868;28;20032;-57
2021/07/11 03:41:27;;;;;;;4.63;1.60;;;26.80;92.40;;;;;;5092658;28;20058;-57
2021/07/11 03:43:57;;;;;;;4.03;2.22;;;26.80;92.50;;;;;;5074298;28;20040;-57
2021/07/11 03:46:29;;;;;;;4.28;2.00;;;26.80;92.60;;;;;;5096795;28;20127;-57
2021/07/11 03:49:04;;;;;;;5.00;1.83;;;26.80;92.70;;;;;;5079039;28;20066;-57
2021/07/11 03:51:35;;;;;;;2.97;1.83;;;26.80;92.60;;;;;;5078241;28;20083;-57
2021/07/11 03:54:04;;;;;;;3.55;1.55;;;26.90;92.70;;;;;;5096510;28;20046;-57
2021/07/11 03:56:35;;;;;;;4.80;1.70;;;26.90;92.60;;;;;;5096048;28;20044;-57
2021/07/11 03:59:06;;;;;;;4.07;2.05;;;26.90;92.60;;;;;;5096347;28;20387;-57
2021/07/11 04:01:36;;;;;;;5.75;1.65;;;27.00;92.60;;;;;;5092683;28;20416;-57
2021/07/11 04:04:13;;;;;;;3.38;2.00;;;27.00;92.60;;;;;;5078215;28;20545;-57
2021/07/11 04:06:46;;;;;;;3.58;1.65;;;27.00;92.60;;;;;;5096208;28;20138;-57
2021/07/11 04:09:17;;;;;;;4.90;2.20;;;27.10;92.60;;;;;;5089699;28;20040;-57
2021/07/11 04:11:46;;;;;;;2.53;1.55;;;27.20;92.60;;;;;;5095932;28;20162;-57
2021/07/11 04:14:18;;;;;;;3.55;1.55;;;27.30;92.60;;;;;;5096118;28;20044;-57
2021/07/11 04:16:51;;;;;;;5.53;1.80;;;27.40;92.50;;;;;;5078249;28;20043;-57
2021/07/11 04:19:26;;;;;;;4.38;1.83;;;27.50;92.60;;;;;;5094515;28;20046;-57
2021/07/11 04:21:56;;;;;;;3.65;2.00;;;27.50;92.50;;;;;;5078024;28;20040;-57
2021/07/11 04:24:24;;;;;;;9.05;2.05;;;27.60;92.40;;;;;;5096270;28;20051;-57
2021/07/11 04:26:55;;;;;;;5.93;2.25;;;27.70;92.30;;;;;;5095694;28;20050;-57
2021/07/11 04:29:25;;;;;;;6.13;1.80;;;27.80;92.20;;;;;;5095633;28;20040;-57
2021/07/11 04:31:52;;;;;;;4.57;1.70;;;27.90;92.10;;;;;;5095760;28;20043;-57
2021/07/11 04:34:34;;;;;;;5.10;2.15;;;28.00;91.90;;;;;;5095972;28;20386;-57
2021/07/11 04:37:04;;;;;;;3.53;1.88;;;28.20;91.90;;;;;;5096284;28;20051;-57
2021/07/11 04:39:32;;;;;;;8.05;1.92;;;28.20;91.80;;;;;;5095526;28;20529;-57
2021/07/11 04:42:01;;;;;;;9.13;2.70;;;28.30;91.70;;;;;;5095459;28;20040;-58
2021/07/11 04:44:28;;;;;;;5.95;2.35;;;28.50;91.60;;;;;;5095296;28;20040;-57
2021/07/11 04:46:56;;;;;;;5.15;1.70;;;28.60;91.40;;;;;;5077207;28;20096;-57
2021/07/11 04:49:25;;;;;;;3.70;1.90;;;28.70;91.40;;;;;;5078269;28;20048;-58
2021/07/11 04:51:54;;;;;;;3.60;1.80;;;28.80;91.30;;;;;;5095126;28;20056;-57
2021/07/11 04:54:22;;;;;;;4.38;1.58;;;28.90;91.10;;;;;;5095458;28;20052;-57
2021/07/11 04:56:50;;;;;;;3.95;1.98;;;29.00;91.10;;;;;;5094140;28;20093;-57
2021/07/11 04:59:17;;;;;;;3.72;2.30;;;29.10;91.00;;;;;;5094965;28;20051;-57
2021/07/11 05:01:45;;;;;;;8.20;2.17;;;29.20;90.90;;;;;;5094825;28;20050;-56
2021/07/11 05:04:13;;;;;;;4.88;1.85;;;29.20;90.80;;;;;;5095652;28;20036;-57
2021/07/11 05:06:41;;;;;;;4.28;2.45;;;29.40;90.70;;;;;;5095092;28;20068;-57
2021/07/11 05:09:09;;;;;;;5.80;2.58;;;29.50;90.60;;;;;;5053182;28;20044;-58
2021/07/11 05:11:37;;;;;;;3.30;2.20;;;29.60;90.50;;;;;;5094820;28;20077;-57
2021/07/11 05:14:05;;;;;;;5.50;2.53;;;29.60;90.40;;;;;;5067965;28;20036;-57
2021/07/11 05:16:33;;;;;;;8.82;2.50;;;29.70;90.30;;;;;;5095214;28;20036;-57
2021/07/11 05:19:02;;;;;;;4.38;2.22;;;29.80;90.30;;;;;;5095256;28;20044;-58
2021/07/11 05:21:30;;;;;;;3.42;2.20;;;29.90;90.10;;;;;;5077095;28;20043;-57
2021/07/11 05:23:58;;;;;;;3.80;2.55;;;29.90;90.00;;;;;;5094801;28;20051;-57
2021/07/11 05:26:26;;;;;;;3.58;2.22;;;30.00;89.50;;;;;;5094841;28;20036;-57
2021/07/11 05:28:54;;;;;;;6.70;3.22;;;30.10;89.40;;;;;;5094766;28;20078;-57
2021/07/11 05:31:21;;;;;;;5.50;2.58;;;30.20;89.20;;;;;;5076844;28;20444;-57
2021/07/11 05:33:49;;;;;;;7.20;3.05;;;30.30;88.90;;;;;;5094394;28;20120;-57
2021/07/11 05:36:17;;;;;;;6.03;3.13;;;30.30;88.30;;;;;;5094599;28;20048;-57
2021/07/11 05:38:45;;;;;;;9.10;3.08;;;30.50;87.70;;;;;;5094434;28;20378;-58
2021/07/11 05:41:13;;;;;;;4.45;2.35;;;30.50;86.20;;;;;;5076326;28;20044;-57
2021/07/11 05:43:40;;;;;;;2.92;2.22;;;30.50;85.50;;;;;;5093929;28;20102;-57
2021/07/11 05:46:08;;;;;;;3.35;1.90;;;30.60;85.30;;;;;;5093677;28;20048;-57
2021/07/11 05:48:35;;;;;;;5.35;2.53;;;30.60;84.90;;;;;;5094326;28;20076;-58
2021/07/11 05:51:03;;;;;;;3.70;2.05;;;30.70;83.50;;;;;;5094146;28;20502;-57
2021/07/11 05:53:31;;;;;;;6.30;2.10;;;30.70;83.40;;;;;;5094144;28;20036;-57
2021/07/11 05:55:58;;;;;;;3.72;2.65;;;30.80;82.70;;;;;;5093848;28;20094;-57
2021/07/11 05:58:26;;;;;;;3.80;2.25;;;30.90;82.20;;;;;;5094307;28;20055;-57
2021/07/11 06:00:53;;;;;;;4.93;2.55;;;31.10;81.90;;;;;;5094068;28;20064;-57
2021/07/11 06:03:21;;;;;;;4.28;2.05;;;31.20;81.40;;;;;;5075784;28;20044;-57
2021/07/11 06:05:49;;;;;;;5.55;2.70;;;31.40;81.00;;;;;;5093627;28;20572;-57
2021/07/11 06:08:17;;;;;;;2.33;1.63;;;31.50;80.20;;;;;;5093506;28;20440;-58
2021/07/11 06:10:44;;;;;;;3.83;2.03;;;31.50;79.40;;;;;;5093715;28;20040;-57
2021/07/11 06:13:12;;;;;;;5.38;2.75;;;31.60;78.90;;;;;;5094403;28;20053;-57
2021/07/11 06:15:39;;;;;;;3.55;1.60;;;31.80;78.50;;;;;;5075670;28;20071;-57
2021/07/11 06:18:08;;;;;;;4.65;2.10;;;31.80;77.70;;;;;;5086666;28;20078;-57
2021/07/11 06:20:35;;;;;;;5.65;2.13;;;31.90;76.40;;;;;;5075885;28;20106;-57
2021/07/11 06:23:03;;;;;;;3.97;1.88;;;32.00;74.80;;;;;;5075237;28;20056;-57
2021/07/11 06:25:31;;;;;;;3.38;1.77;;;32.10;73.80;;;;;;5093653;28;20402;-57
2021/07/11 06:27:59;;;;;;;3.90;1.83;;;32.10;70.40;;;;;;5075855;28;20119;-57
2021/07/11 06:30:27;;;;;;;4.55;1.90;;;32.10;69.90;;;;;;5093310;28;20494;-57
2021/07/11 06:32:54;;;;;;;3.55;1.80;;;32.30;70.30;;;;;;5059188;28;20089;-57
2021/07/11 06:35:24;;;;;;;3.97;1.50;;;32.40;70.70;;;;;;5075324;28;20502;-57
2021/07/11 06:37:52;;;;;;;2.88;1.67;;;32.40;70.40;;;;;;5075661;28;20047;-57
2021/07/11 06:40:22;;;;;;;4.10;2.25;;;32.50;70.50;;;;;;5093571;28;20051;-57
2021/07/11 06:42:50;;;;;;;4.88;1.50;;;32.60;68.60;;;;;;5093295;28;20051;-57
2021/07/11 06:45:18;;;;;;;6.15;2.42;;;32.70;66.50;;;;;;5093037;28;20048;-57
2021/07/11 06:47:46;;;;;;;4.15;1.52;;;32.70;66.90;;;;;;5093098;28;20040;-57
2021/07/11 06:50:15;;;;;;;3.80;1.50;;;32.90;66.20;;;;;;5093067;28;20054;-57
2021/07/11 06:52:44;;;;;;;3.40;1.73;;;33.00;65.90;;;;;;5093458;28;20494;-57
2021/07/11 06:55:12;;;;;;;2.47;1.38;;;33.20;65.10;;;;;;5075220;28;20436;-57
2021/07/11 06:57:40;;;;;;;3.22;1.70;;;33.20;65.10;;;;;;5092916;28;20036;-57
2021/07/11 07:00:11;;;;;;;4.15;1.48;;;33.20;65.10;;;;;;5084411;28;20058;-58
2021/07/11 07:02:39;;;;;;;3.10;1.63;;;33.10;65.00;;;;;;5075128;28;20445;-58
2021/07/11 07:05:09;;;;;;;3.65;1.77;;;33.10;65.50;;;;;;5084649;28;20032;-57
2021/07/11 07:07:38;;;;;;;3.67;1.65;;;33.20;65.10;;;;;;5074807;28;20051;-57
2021/07/11 07:10:09;;;;;;;4.28;1.88;;;33.00;65.00;;;;;;5092808;28;20048;-57
2021/07/11 07:12:37;;;;;;;5.25;1.70;;;32.60;64.70;;;;;;5074897;28;20498;-57
2021/07/11 07:15:07;;;;;;;3.50;1.73;;;32.60;65.10;;;;;;5074581;28;20052;-58
2021/07/11 07:17:34;;;;;;;3.05;1.60;;;32.70;66.50;;;;;;5074703;28;20416;-58
2021/07/11 07:20:05;;;;;;;5.07;1.52;;;32.90;64.30;;;;;;5092042;28;20079;-57
2021/07/11 07:22:37;;;;;;;2.90;1.40;;;33.00;64.30;;;;;;5089054;28;20579;-58
2021/07/11 07:25:11;;;;;;;2.05;1.30;;;33.10;64.70;;;;;;5092873;28;20040;-57
2021/07/11 07:27:39;;;;;;;7.65;1.98;;;33.30;64.60;;;;;;5092760;28;20044;-58
2021/07/11 07:30:08;;;;;;;2.50;1.58;;;33.50;64.50;;;;;;5092535;28;20143;-57
2021/07/11 07:32:37;;;;;;;4.72;2.20;;;33.60;64.80;;;;;;5092542;28;20048;-57
2021/07/11 07:35:05;;;;;;;3.05;1.60;;;33.60;65.00;;;;;;5083980;28;20040;-58
2021/07/11 07:37:33;;;;;;;3.40;2.05;;;33.50;65.10;;;;;;5088820;28;20036;-58
2021/07/11 07:40:04;;;;;;;5.85;2.63;;;33.60;65.40;;;;;;5092746;28;20040;-58
2021/07/11 07:42:32;;;;;;;2.38;1.70;;;33.80;65.60;;;;;;5092640;28;20040;-58
2021/07/11 07:45:00;;;;;;;2.50;1.55;;;33.90;65.00;;;;;;5092502;28;20097;-58
2021/07/11 07:47:28;;;;;;;4.40;1.75;;;34.00;65.30;;;;;;5092135;28;20079;-58
2021/07/11 07:49:55;;;;;;;3.17;1.65;;;34.00;65.20;;;;;;5092833;28;20054;-57
2021/07/11 07:52:24;;;;;;;3.80;1.63;;;34.10;64.90;;;;;;5093180;28;20055;-58
2021/07/11 07:54:52;;;;;;;4.38;1.77;;;34.00;64.80;;;;;;5074687;28;20051;-58
2021/07/11 07:57:19;;;;;;;2.90;1.70;;;34.00;65.70;;;;;;5092221;28;20056;-58
2021/07/11 07:59:47;;;;;;;3.40;1.33;;;34.00;65.10;;;;;;5092050;28;20486;-58
2021/07/11 08:02:15;;;;;;;4.43;2.25;;;34.00;66.00;;;;;;5092292;28;20063;-57
2021/07/11 08:04:42;;;;;;;5.13;1.50;;;33.90;65.80;;;;;;5092343;28;20071;-58
2021/07/11 08:07:10;;;;;;;2.33;1.55;;;33.80;66.40;;;;;;5091875;28;20043;-58
2021/07/11 08:09:37;;;;;;;2.78;1.40;;;33.60;64.30;;;;;;5074666;28;20482;-58
2021/07/11 08:12:06;;;;;;;2.38;1.25;;;33.70;64.00;;;;;;5092107;28;20036;-57
2021/07/11 08:14:34;;;;;;;3.08;1.40;;;33.70;64.30;;;;;;5074095;28;20536;-58
2021/07/11 08:17:01;;;;;;;3.85;1.48;;;33.80;64.90;;;;;;5074391;28;20113;-57
2021/07/11 08:19:29;;;;;;;4.20;1.30;;;33.60;65.40;;;;;;5092759;28;20044;-58
2021/07/11 08:21:57;;;;;;;5.60;2.40;;;33.60;64.50;;;;;;5074707;28;20051;-58
2021/07/11 08:24:25;;;;;;;3.20;1.70;;;33.80;65.00;;;;;;5074241;28;20051;-58
2021/07/11 08:26:53;;;;;;;2.58;1.42;;;33.90;66.50;;;;;;5092244;28;20044;-58
2021/07/11 08:29:20;;;;;;;4.00;1.38;;;34.00;65.90;;;;;;5091859;28;20394;-57
2021/07/11 08:31:48;;;;;;;2.22;1.60;;;34.20;64.40;;;;;;5094295;28;20046;-57
2021/07/11 08:34:16;;;;;;;3.22;1.40;;;34.30;64.70;;;;;;5061296;28;20137;-57
2021/07/11 08:36:44;;;;;;;3.90;1.30;;;34.30;65.10;;;;;;5095881;28;20123;-57
2021/07/11 08:39:12;;;;;;;2.78;1.42;;;34.30;64.30;;;;;;5095603;28;20044;-57
2021/07/11 08:41:39;;;;;;;2.85;1.63;;;34.40;63.40;;;;;;5077363;28;20114;-57
2021/07/11 08:44:07;;;;;;;5.65;2.13;;;34.60;64.50;;;;;;5095276;28;20390;-57
2021/07/11 08:46:35;;;;;;;4.78;1.55;;;34.50;64.20;;;;;;5091847;28;20040;-57
2021/07/11 08:49:03;;;;;;;3.55;1.33;;;34.40;63.90;;;;;;5077651;28;20036;-58
2021/07/11 08:51:31;;;;;;;2.75;1.40;;;34.30;63.70;;;;;;5077065;28;20052;-57
2021/07/11 08:54:01;;;;;;;3.40;1.77;;;34.20;63.70;;;;;;5095222;28;20067;-57
2021/07/11 08:56:29;;;;;;;3.75;1.98;;;34.10;64.50;;;;;;5077290;28;20036;-57
2021/07/11 08:58:57;;;;;;;3.35;1.63;;;34.10;63.10;;;;;;5095228;28;20040;-57
2021/07/11 09:01:28;;;;;;;3.85;1.70;;;34.20;62.80;;;;;;5095649;28;20394;-58
2021/07/11 09:04:11;;;;;;;3.72;1.60;;;34.40;63.00;;;;;;5095141;28;20040;-58
2021/07/11 09:06:48;;;;;;;3.63;1.60;;;34.50;64.10;;;;;;5095064;28;20051;-58
2021/07/11 09:09:27;;;;;;;3.10;1.95;;;34.60;63.30;;;;;;5089161;28;20474;-58
2021/07/11 09:12:05;;;;;;;2.55;1.80;;;34.60;63.20;;;;;;5095180;28;20084;-58
2021/07/11 09:14:38;;;;;;;2.65;2.10;;;34.80;62.90;;;;;;5077249;28;20040;-58
2021/07/11 09:17:08;;;;;;;3.83;2.10;;;34.80;63.40;;;;;;5086183;28;20513;-58
2021/07/11 09:19:42;;;;;;;5.32;2.22;;;34.90;61.90;;;;;;5090932;28;20036;-58
2021/07/11 09:22:13;;;;;;;3.22;2.25;;;35.00;61.80;;;;;;5094656;28;20098;-58
2021/07/11 09:25:07;;;;;;;4.97;2.50;;;35.10;60.90;;;;;;5094990;28;20047;-58
2021/07/11 09:27:36;;;;;;;3.50;2.30;;;35.00;60.30;;;;;;5087464;28;20048;-58
2021/07/11 09:30:07;;;;;;;4.85;2.25;;;35.00;60.30;;;;;;5076684;28;20055;-58
2021/07/11 09:32:38;;;;;;;3.30;2.38;;;35.00;60.40;;;;;;5094640;28;20040;-58
2021/07/11 09:35:13;;;;;;;2.47;1.88;;;35.00;58.80;;;;;;5085735;28;20397;-57
2021/07/11 09:37:43;;;;;;;3.78;2.08;;;35.00;60.30;;;;;;5091128;28;20054;-58
2021/07/11 09:40:14;;;;;;;2.92;1.75;;;34.70;60.90;;;;;;5092910;28;20501;-57
2021/07/11 09:42:47;;;;;;;2.92;1.98;;;34.70;59.80;;;;;;5093943;28;20040;-58
2021/07/11 09:45:16;;;;;;;4.63;1.90;;;34.40;58.50;;;;;;5070345;28;20055;-57
2021/07/11 09:47:46;;;;;;;3.85;1.90;;;34.50;60.90;;;;;;5076092;28;20040;-58
2021/07/11 09:50:22;;;;;;;3.10;2.08;;;34.50;60.70;;;;;;5094252;28;20101;-57
2021/07/11 09:52:51;;;;;;;4.55;1.95;;;34.40;61.70;;;;;;5094003;28;20052;-58
2021/07/11 09:55:24;;;;;;;5.03;1.95;;;34.50;61.40;;;;;;5092930;28;20047;-58
2021/07/11 09:57:54;;;;;;;4.10;2.05;;;34.50;61.90;;;;;;5094193;28;20055;-58
2021/07/11 10:00:37;;;;;;;4.72;2.50;;;34.40;62.20;;;;;;5094312;28;20501;-58
2021/07/11 10:03:11;;;;;;;3.90;1.70;;;34.50;62.00;;;;;;5076153;28;20074;-58
2021/07/11 10:05:40;;;;;;;5.70;2.03;;;34.70;59.00;;;;;;5093984;28;20032;-58
2021/07/11 10:08:09;;;;;;;3.17;2.08;;;34.70;59.10;;;;;;5085410;28;20036;-58
2021/07/11 10:10:39;;;;;;;2.97;2.08;;;34.80;59.90;;;;;;5093905;28;20040;-57
2021/07/11 10:13:08;;;;;;;2.95;2.17;;;34.70;60.70;;;;;;5059241;28;20394;-58
2021/07/11 10:15:37;;;;;;;4.55;2.47;;;34.80;60.50;;;;;;5093395;28;20044;-58
2021/07/11 10:18:06;;;;;;;3.15;1.88;;;34.60;60.20;;;;;;5093881;28;20512;-58
2021/07/11 10:20:37;;;;;;;4.95;1.75;;;34.60;58.90;;;;;;5075532;28;20054;-58
2021/07/11 10:23:06;;;;;;;2.30;1.50;;;34.50;57.40;;;;;;5066858;28;20044;-58
2021/07/11 10:25:35;;;;;;;2.10;1.40;;;34.60;56.10;;;;;;5089547;28;20052;-57
2021/07/11 10:28:06;;;;;;;2.38;1.42;;;34.70;56.00;;;;;;5093618;28;20097;-58
2021/07/11 10:30:34;;;;;;;3.42;1.52;;;34.70;56.60;;;;;;5093452;28;20395;-58
2021/07/11 10:33:25;;;;;;;3.47;1.63;;;34.90;58.60;;;;;;5093227;28;20062;-58
2021/07/11 10:36:02;;;;;;;2.35;1.38;;;34.90;57.80;;;;;;5093638;28;20044;-58
2021/07/11 10:38:44;;;;;;;3.22;1.67;;;34.80;57.00;;;;;;5093383;28;20405;-58
2021/07/11 10:41:21;;;;;;;2.30;1.63;;;34.90;58.00;;;;;;5085702;28;20490;-58
2021/07/11 10:44:10;;;;;;;5.15;1.80;;;34.80;58.10;;;;;;5092944;28;20040;-58
2021/07/11 10:46:44;;;;;;;4.95;2.20;;;34.90;57.80;;;;;;5089573;28;20055;-57
2021/07/11 10:49:36;;;;;;;3.40;2.00;;;34.90;58.30;;;;;;5092891;28;20493;-58
2021/07/11 10:52:06;;;;;;;2.53;1.70;;;34.80;58.30;;;;;;5080939;28;20048;-58
2021/07/11 10:54:48;;;;;;;5.03;1.85;;;34.80;58.70;;;;;;5092295;28;20048;-57
2021/07/11 10:57:44;;;;;;;5.45;2.00;;;34.80;57.80;;;;;;5086767;28;20525;-57
2021/07/11 11:00:20;;;;;;;3.85;1.90;;;34.80;57.80;;;;;;5086308;28;20044;-57
2021/07/11 11:02:53;;;;;;;4.07;2.28;;;34.70;57.80;;;;;;5092943;28;20486;-57
2021/07/11 11:05:25;;;;;;;2.53;1.67;;;34.80;57.80;;;;;;5093332;28;20039;-58
2021/07/11 11:08:08;;;;;;;3.58;1.73;;;34.80;57.10;;;;;;5092817;28;20394;-57
2021/07/11 11:10:38;;;;;;;2.58;1.75;;;34.90;56.50;;;;;;5089281;28;20054;-56
2021/07/11 11:13:16;;;;;;;4.70;1.63;;;34.90;56.90;;;;;;5093022;28;20093;-58
2021/07/11 11:15:54;;;;;;;3.25;1.60;;;34.80;55.90;;;;;;5074639;28;20482;-58
2021/07/11 11:18:31;;;;;;;3.20;1.55;;;34.80;55.50;;;;;;5093128;28;20131;-58
2021/07/11 11:21:01;;;;;;;5.30;1.75;;;34.90;54.50;;;;;;5092972;28;20047;-57
2021/07/11 11:23:35;;;;;;;5.68;1.90;;;34.80;54.00;;;;;;5092595;28;20089;-57
2021/07/11 11:26:04;;;;;;;3.08;1.73;;;34.90;55.00;;;;;;5092787;28;20123;-58
2021/07/11 11:28:33;;;;;;;4.65;1.88;;;34.80;55.30;;;;;;5093321;28;20047;-58
2021/07/11 11:31:06;;;;;;;3.80;1.85;;;34.70;56.30;;;;;;5093035;28;20149;-58
2021/07/11 11:34:08;;;;;;;2.88;2.17;;;34.60;56.20;;;;;;5092678;28;20052;-58
2021/07/11 11:36:38;;;;;;;3.97;1.70;;;34.70;56.40;;;;;;5074791;28;20136;-58
2021/07/11 11:39:09;;;;;;;4.95;2.30;;;34.60;56.00;;;;;;5092577;28;20048;-58
2021/07/11 11:41:37;;;;;;;3.05;1.77;;;34.60;57.30;;;;;;5092393;28;20036;-58
2021/07/11 11:44:20;;;;;;;4.60;2.25;;;34.60;57.80;;;;;;5083864;28;20039;-57
2021/07/11 11:46:56;;;;;;;3.30;1.95;;;34.40;57.70;;;;;;5090193;28;20048;-57
2021/07/11 11:49:29;;;;;;;3.03;2.05;;;34.30;57.30;;;;;;5092194;28;20465;-58
2021/07/11 11:51:59;;;;;;;3.22;1.77;;;34.20;58.60;;;;;;5092376;28;20052;-58
2021/07/11 11:54:40;;;;;;;4.22;2.47;;;34.20;59.20;;;;;;5092370;28;20062;-58
2021/07/11 11:57:09;;;;;;;2.70;1.77;;;34.30;58.70;;;;;;5092561;28;20040;-58
2021/07/11 11:59:37;;;;;;;4.10;2.10;;;34.20;59.20;;;;;;5092117;28;20054;-58
2021/07/11 12:02:11;;;;;;;2.60;1.80;;;34.20;58.70;;;;;;5083590;28;20529;-58
2021/07/11 12:04:39;;;;;;;3.85;1.70;;;34.20;56.80;;;;;;5071491;28;20044;-56
2021/07/11 12:07:11;;;;;;;5.20;2.47;;;34.20;56.00;;;;;;5095804;28;20382;-57
2021/07/11 12:09:39;;;;;;;3.63;2.30;;;34.20;57.10;;;;;;5096134;28;20523;-57
2021/07/11 12:12:09;;;;;;;5.95;2.40;;;34.30;57.70;;;;;;5078307;28;20040;-58
2021/07/11 12:14:40;;;;;;;4.53;1.50;;;34.30;57.60;;;;;;5096366;28;20119;-58
2021/07/11 12:17:10;;;;;;;3.25;1.90;;;34.30;57.10;;;;;;5087551;28;20081;-57
2021/07/11 12:19:45;;;;;;;2.53;1.35;;;34.30;55.70;;;;;;5095996;28;20048;-57
2021/07/11 12:22:19;;;;;;;2.40;1.77;;;34.30;55.00;;;;;;5096047;28;20123;-58
2021/07/11 12:24:58;;;;;;;2.95;1.50;;;34.30;55.20;;;;;;5095972;28;20040;-57
2021/07/11 12:27:27;;;;;;;3.78;1.50;;;34.30;55.20;;;;;;5095691;28;20055;-58
2021/07/11 12:30:06;;;;;;;2.55;1.50;;;34.40;54.50;;;;;;5095681;28;20040;-58
2021/07/11 12:32:53;;;;;;;4.47;2.55;;;34.40;54.90;;;;;;5095744;28;20040;-58
2021/07/11 12:35:24;;;;;;;3.25;1.92;;;34.30;54.80;;;;;;5089209;28;20071;-58
2021/07/11 12:37:58;;;;;;;3.45;1.83;;;34.30;55.00;;;;;;5078042;28;20502;-58
2021/07/11 12:40:31;;;;;;;2.33;1.45;;;34.30;55.40;;;;;;5079248;28;20131;-58
2021/07/11 12:43:18;;;;;;;3.60;1.58;;;34.30;55.10;;;;;;5077685;28;20052;-58
2021/07/11 12:45:57;;;;;;;2.85;1.45;;;34.40;54.80;;;;;;5095375;28;20047;-58
2021/07/11 12:48:43;;;;;;;3.95;1.70;;;34.50;55.40;;;;;;5095587;28;20047;-58
2021/07/11 12:51:13;;;;;;;3.65;1.45;;;34.40;55.80;;;;;;5070520;28;20059;-58
2021/07/11 12:53:41;;;;;;;2.97;1.67;;;34.50;55.00;;;;;;5095114;28;20486;-58
2021/07/11 12:56:09;;;;;;;1.40;1.00;;;34.50;54.90;;;;;;5095124;28;20379;-58
2021/07/11 12:58:42;;;;;;;9.52;2.92;;;34.40;54.80;;;;;;5095817;28;20048;-57
2021/07/11 13:01:10;;;;;;;2.95;1.40;;;34.40;53.50;;;;;;5094707;28;20062;-58
2021/07/11 13:03:39;;;;;;;2.33;1.42;;;34.30;52.00;;;;;;5094988;28;20036;-58
2021/07/11 13:06:13;;;;;;;2.30;1.08;;;34.30;52.90;;;;;;5077178;28;20051;-58